Tuesday, July 26, 2016, 6:09 AM EDT

KDOV, Dover Air Force Base

Location: Dover, DE, United States Lat: 39.133
Local Time: 6:09 AM EDT (10:09 GMT) Lon: -75.467
Time Zone: US/Eastern Elev: 29 ft

Show me the last for .
Show Decoded

2016-07-26 04:58 METAR KDOV 260858Z AUTO 32004KT 10SM CLR 24/24 A2989 RMK AO2 SLP125 T02410241
                 58001 VISNO RWY19 CHINO RWY19 $ =
2016-07-26 03:58 METAR KDOV 260758Z AUTO 29005KT 10SM CLR 25/24 A2988 RMK AO2 SLP121 T02500237
                 VISNO RWY19 CHINO RWY19 $ =
2016-07-26 02:58 METAR KDOV 260658Z 33001KT 10SM CLR 24/24 A2989 RMK AO2A SLP125 T02410240 VISNO
                 RWY19 CHINO RWY19 $ =
2016-07-26 01:58 METAR KDOV 260558Z AUTO 17004KT 10SM FEW160 25/24 A2989 RMK AO2 LTG DSNT S
                 SLP125 60000 T02470242 10321 20247 55014 VISNO RWY19 CHINO RWY19 $ =
2016-07-26 00:58 METAR KDOV 260458Z AUTO 15005KT 10SM BKN055 26/24 A2990 RMK AO2 LTG DSNT S
                 SLP128 T02610240 403640242 VISNO RWY19 CHINO RWY19 $ =
2016-07-25 23:58 METAR KDOV 260358Z AUTO 13007KT 10SM SCT070 26/24 A2989 RMK AO2 SLP125 T02590235
                 VISNO RWY19 CHINO RWY19 $ =
2016-07-25 22:58 METAR KDOV 260258Z AUTO 04006KT 10SM FEW060 26/23 A2993 RMK AO2 RAB27E35 SLP138
                 P0000 60000 T02560231 50027 VISNO RWY19 CHINO RWY19 $ =
2016-07-25 22:35 METAR KDOV 260235Z AUTO 04006KT 10SM FEW075 SCT140 26/23 A2994 RMK AO2 RAB27E35
                 =
2016-07-25 22:27 METAR KDOV 260227Z AUTO 06006KT 10SM -RA FEW075 SCT140 26/23 A2993 RMK AO2 RAB27
                 =
2016-07-25 21:58 METAR KDOV 260158Z AUTO 04009KT 10SM CLR 26/23 A2993 =
2016-07-25 20:58 METAR KDOV 260058Z AUTO 01020G26KT 10SM FEW032 SCT080 BKN095 30/25 A2990 =
2016-07-25 19:58 METAR KDOV 252358Z AUTO 20009KT 10SM FEW210 32/26 A2985 RMK AO2 SLP111 T03220262
                 10364 20322 VISNO RWY19 CHINO RWY19 $ =
2016-07-25 18:58 METAR KDOV 252258Z AUTO 20006KT 10SM CLR 33/25 A2983 RMK AO2 SLP104 T03340254
                 VISNO RWY19 CHINO RWY19 $ =
2016-07-25 17:58 METAR KDOV 252158Z AUTO 22008KT 10SM CLR 35/25 A2983 RMK AO2 SLP104 T03540253
                 VISNO RWY19 CHINO RWY19 $ =
2016-07-25 15:58 METAR KDOV 251958Z AUTO 20010KT 10SM CLR 36/26 A2985 RMK AO2 SLP111 T03610255
                 VISNO RWY19 CHINO RWY19 $ =
2016-07-25 14:58 METAR KDOV 251858Z AUTO 19011KT 10SM FEW055 36/26 A2987 RMK AO2 SLP118 T03590255
                 VISNO RWY19 CHINO RWY19 $ =
2016-07-25 13:58 METAR KDOV 251758Z AUTO 21007KT 10SM FEW046 35/26 A2989 RMK AO2 SLP125 60000
                 T03520260 10355 20261 57017 VISNO RWY19 CHINO RWY19 $ =
2016-07-25 12:58 METAR KDOV 251658Z AUTO 20008KT 10SM CLR 34/27 A2991 RMK AO2 SLP131 T03420265
                 VISNO RWY19 CHINO RWY19 $ =
2016-07-25 11:58 METAR KDOV 251558Z AUTO VRB06KT 10SM CLR 33/26 A2993 =
2016-07-25 10:58 METAR KDOV 251458Z AUTO 25005KT 10SM CLR 31/27 A2994 RMK AO2 SLP142 60000
                 T03110265 50002 VISNO RWY19 CHINO RWY19 $ =
2016-07-25 09:58 METAR KDOV 251358Z AUTO 23002KT 10SM CLR 29/27 A2995 RMK AO2 SLP145 T02860266
                 VISNO RWY19 CHINO RWY19 $ =
2016-07-25 08:58 METAR KDOV 251258Z AUTO 19004KT 10SM FEW160 28/26 A2994 RMK AO2
                 RAB1158E03DZB03E05RAB05E08DZB08E09RAB09E10 SLP142 P0000 T02770261 VISNO RWY19
                 CHINO RWY19 $ =
2016-07-25 07:58 METAR KDOV 251158Z COR AUTO VRB01KT 9SM BKN130 26/26 A2994 RMK AO2
                 DZB32E34RAB36E49DZB49 SLP142 P0000 60000 T02590259 10259 20249 50003 VISNO RWY19
                 CHINO RWY19 $ COR 1223 =
2016-07-25 06:58 METAR KDOV 251058Z AUTO VRB02KT 10SM BKN130 25/25 A2995 RMK AO2 SLP145 T02540254
                 VISNO RWY19 CHINO RWY19 $ =

Support USWX by starting your Amazon purchase here.